Time;durP1;ratioP1;P1;durP2;ratioP2;P2;SDS_P1;SDS_P2;PMS_P1;PMS_P2;Temp;Humidity;BMP_temperature;BMP_pressure;BME280_temperature;BME280_humidity;BME280_pressure;Samples;Min_cycle;Max_cycle;Signal;HPM_P1;HPM_P2
2023/02/20 00:01:38;;;;;;;2.75;0.30;;;10.70;69.00;;;;;;4976588;28;89050;-73
2023/02/20 00:04:04;;;;;;;2.33;0.30;;;10.70;68.90;;;;;;4979665;28;88309;-73
2023/02/20 00:06:30;;;;;;;1.45;0.20;;;10.70;68.80;;;;;;4978681;28;87509;-74
2023/02/20 00:08:55;;;;;;;2.65;0.20;;;10.70;68.00;;;;;;4979820;28;87501;-71
2023/02/20 00:11:21;;;;;;;2.13;0.15;;;10.70;67.30;;;;;;4985485;28;88102;-73
2023/02/20 00:13:48;;;;;;;1.40;0.10;;;10.60;66.80;;;;;;4980362;28;87777;-71
2023/02/20 00:16:14;;;;;;;1.05;0.20;;;10.70;67.20;;;;;;4982818;28;87300;-74
2023/02/20 00:18:40;;;;;;;2.20;0.10;;;10.70;67.10;;;;;;4978851;28;86491;-73
2023/02/20 00:21:06;;;;;;;2.75;0.10;;;10.70;66.90;;;;;;4982506;28;87670;-71
2023/02/20 00:23:32;;;;;;;2.60;0.15;;;10.70;66.80;;;;;;4978962;28;87840;-73
2023/02/20 00:25:58;;;;;;;1.80;0.10;;;10.70;66.70;;;;;;4979195;28;88073;-71
2023/02/20 00:28:24;;;;;;;2.17;0.10;;;10.70;66.70;;;;;;4996241;28;87082;-72
2023/02/20 00:30:50;;;;;;;0.98;0.10;;;10.70;66.90;;;;;;4978328;28;88086;-73
2023/02/20 00:33:16;;;;;;;2.22;0.13;;;10.70;67.00;;;;;;4994264;28;87421;-73
2023/02/20 00:35:41;;;;;;;1.55;0.10;;;10.70;67.10;;;;;;4991236;28;87433;-73
2023/02/20 00:38:07;;;;;;;1.38;0.13;;;10.70;66.90;;;;;;4979902;28;87515;-73
2023/02/20 00:40:33;;;;;;;1.25;0.10;;;10.70;67.20;;;;;;4981786;28;87666;-72
2023/02/20 00:42:58;;;;;;;1.80;0.10;;;10.70;67.10;;;;;;4985832;28;87315;-73
2023/02/20 00:45:24;;;;;;;1.65;0.10;;;10.70;67.00;;;;;;4978742;28;87304;-73
2023/02/20 00:47:49;;;;;;;3.58;0.22;;;10.70;66.90;;;;;;4977803;28;87570;-73
2023/02/20 00:50:16;;;;;;;1.00;0.20;;;10.70;67.10;;;;;;4981052;28;89125;-73
2023/02/20 00:52:42;;;;;;;2.80;0.20;;;10.70;66.90;;;;;;4980230;28;88237;-73
2023/02/20 00:55:07;;;;;;;2.28;0.10;;;10.70;66.60;;;;;;4978056;28;87762;-73
2023/02/20 00:57:33;;;;;;;1.10;0.10;;;10.60;67.00;;;;;;4978720;28;87422;-74
2023/02/20 00:59:59;;;;;;;3.58;0.10;;;10.60;67.20;;;;;;4977720;28;87400;-74
2023/02/20 01:02:25;;;;;;;2.30;0.20;;;10.60;66.80;;;;;;4979537;28;88228;-72
2023/02/20 01:04:50;;;;;;;1.98;0.17;;;10.60;67.00;;;;;;4991382;28;87495;-74
2023/02/20 01:07:16;;;;;;;3.60;0.30;;;10.60;67.00;;;;;;4982739;28;86689;-73
2023/02/20 01:09:42;;;;;;;3.05;0.10;;;10.60;67.10;;;;;;4977953;28;88220;-73
2023/02/20 01:12:07;;;;;;;2.35;0.20;;;10.60;67.00;;;;;;4977776;28;88003;-73
2023/02/20 01:14:33;;;;;;;2.92;0.20;;;10.60;67.20;;;;;;4978162;28;88322;-75
2023/02/20 01:16:59;;;;;;;2.00;0.40;;;10.60;67.60;;;;;;4979097;28;87461;-72
2023/02/20 01:19:25;;;;;;;1.73;0.22;;;10.60;67.30;;;;;;4992408;28;87620;-73
2023/02/20 01:21:50;;;;;;;2.67;0.20;;;10.60;67.10;;;;;;4977826;28;87320;-73
2023/02/20 01:24:17;;;;;;;3.67;0.13;;;10.60;67.30;;;;;;4988631;28;88661;-73
2023/02/20 01:26:45;;;;;;;1.45;0.10;;;10.60;67.20;;;;;;4985116;28;87370;-73
2023/02/20 01:29:11;;;;;;;2.53;0.20;;;10.50;67.20;;;;;;4981119;28;87605;-73
2023/02/20 01:31:37;;;;;;;2.17;0.40;;;10.50;67.90;;;;;;4979951;28;86742;-73
2023/02/20 01:34:03;;;;;;;3.33;0.25;;;10.50;68.60;;;;;;4984488;28;87407;-73
2023/02/20 01:36:29;;;;;;;2.15;0.25;;;10.40;68.90;;;;;;4990868;28;87375;-73
2023/02/20 01:38:55;;;;;;;2.75;0.20;;;10.40;69.30;;;;;;4994236;28;89032;-73
2023/02/20 01:41:23;;;;;;;2.03;0.20;;;10.30;69.40;;;;;;4985718;28;88998;-73
2023/02/20 01:43:49;;;;;;;2.05;0.20;;;10.40;69.70;;;;;;4994536;28;87095;-73
2023/02/20 01:46:38;;;;;;;1.92;0.20;;;10.40;69.80;;;;;;4978960;28;87404;-71
2023/02/20 01:49:08;;;;;;;2.33;0.20;;;10.30;70.10;;;;;;4963625;28;88281;-71
2023/02/20 01:51:41;;;;;;;2.95;0.30;;;10.20;70.30;;;;;;4979852;28;87442;-72
2023/02/20 01:54:10;;;;;;;1.55;0.30;;;10.20;70.80;;;;;;4978754;28;87329;-73
2023/02/20 01:56:36;;;;;;;2.75;0.20;;;10.20;70.90;;;;;;4978759;28;86434;-72
2023/02/20 01:59:03;;;;;;;2.72;0.20;;;10.20;70.40;;;;;;4976709;28;87985;-73
2023/02/20 02:01:30;;;;;;;2.05;0.20;;;10.20;70.50;;;;;;4979089;28;87723;-72
2023/02/20 02:04:00;;;;;;;1.98;0.20;;;10.20;70.60;;;;;;4978590;28;88181;-71
2023/02/20 02:06:28;;;;;;;3.55;0.20;;;10.20;70.70;;;;;;4977637;28;87264;-72
2023/02/20 02:08:57;;;;;;;2.53;0.30;;;10.20;70.50;;;;;;4984716;28;87594;-72
2023/02/20 02:11:25;;;;;;;3.53;0.20;;;10.20;71.00;;;;;;4978761;28;88383;-72
2023/02/20 02:13:51;;;;;;;3.00;0.25;;;10.20;70.70;;;;;;4978379;28;87668;-71
2023/02/20 02:16:20;;;;;;;2.20;0.30;;;10.10;72.20;;;;;;4976098;28;87519;-71
2023/02/20 02:19:06;;;;;;;7.63;0.50;;;10.00;72.70;;;;;;4982912;28;87689;-71
2023/02/20 02:21:59;;;;;;;2.28;0.20;;;10.00;73.10;;;;;;4975377;28;87882;-72
2023/02/20 02:24:58;;;;;;;3.70;0.40;;;9.90;73.80;;;;;;4977461;28;87480;-71
2023/02/20 02:27:42;;;;;;;2.22;0.20;;;9.90;73.40;;;;;;4979810;28;87731;-72
2023/02/20 02:30:26;;;;;;;2.15;0.35;;;9.90;73.40;;;;;;4975718;28;88496;-72
2023/02/20 02:33:30;;;;;;;5.15;0.30;;;9.90;73.40;;;;;;4974184;28;87938;-72
2023/02/20 02:36:01;;;;;;;2.55;0.40;;;9.90;73.40;;;;;;4979378;28;87609;-72
2023/02/20 02:38:33;;;;;;;3.78;0.43;;;9.90;73.40;;;;;;4978068;28;87719;-73
2023/02/20 02:41:21;;;;;;;4.63;0.40;;;9.90;73.50;;;;;;4976704;28;87505;-73
2023/02/20 02:43:52;;;;;;;2.83;0.40;;;9.90;74.00;;;;;;4978045;28;87901;-74
2023/02/20 02:46:26;;;;;;;2.00;0.20;;;9.90;74.70;;;;;;4987044;28;87579;-73
2023/02/20 02:48:59;;;;;;;3.50;0.40;;;9.80;74.90;;;;;;4982809;28;87643;-72
2023/02/20 02:51:31;;;;;;;2.85;0.40;;;9.70;75.60;;;;;;4980041;28;88960;-71
2023/02/20 02:54:09;;;;;;;4.35;0.40;;;9.70;76.10;;;;;;4984582;28;87408;-71
2023/02/20 02:56:46;;;;;;;3.90;0.30;;;9.70;76.30;;;;;;4980108;28;88202;-72
2023/02/20 02:59:27;;;;;;;3.42;0.45;;;9.70;76.80;;;;;;4981823;28;88719;-71
2023/02/20 03:02:02;;;;;;;3.45;0.40;;;9.70;76.60;;;;;;4981278;28;88618;-73
2023/02/20 03:04:30;;;;;;;2.35;0.38;;;9.70;76.70;;;;;;4978281;28;87628;-73
2023/02/20 03:07:01;;;;;;;2.75;0.50;;;9.60;76.70;;;;;;4979312;28;87008;-73
2023/02/20 03:09:34;;;;;;;3.25;0.55;;;9.70;76.50;;;;;;4982201;28;88259;-73
2023/02/20 03:12:01;;;;;;;2.42;0.30;;;9.70;76.60;;;;;;4981187;28;87639;-73
2023/02/20 03:17:34;;;;;;;3.28;0.40;;;9.70;76.80;;;;;;4985369;28;87847;-72
2023/02/20 03:20:04;;;;;;;4.28;0.55;;;9.70;76.80;;;;;;4980504;28;87448;-73
2023/02/20 03:22:33;;;;;;;3.50;0.57;;;9.60;77.10;;;;;;4979526;28;90865;-72
2023/02/20 03:25:10;;;;;;;1.50;0.43;;;9.60;77.20;;;;;;4981155;28;87938;-72
2023/02/20 03:27:53;;;;;;;3.20;0.40;;;9.60;77.30;;;;;;4983747;28;87262;-72
2023/02/20 03:30:21;;;;;;;1.63;0.32;;;9.60;77.40;;;;;;4984075;28;87608;-72
2023/02/20 03:43:59;;;;;;;2.30;0.40;;;9.60;77.90;;;;;;4981637;28;87798;-72
2023/02/20 03:46:26;;;;;;;2.17;0.45;;;9.50;77.80;;;;;;4985163;28;87897;-73
2023/02/20 03:49:01;;;;;;;4.30;0.40;;;9.60;77.80;;;;;;4999850;28;88598;-71
2023/02/20 03:54:11;;;;;;;3.97;0.52;;;9.50;78.20;;;;;;4998281;28;87401;-72
2023/02/20 03:56:41;;;;;;;4.03;0.73;;;9.40;78.90;;;;;;5000360;28;87625;-72
2023/02/20 03:59:14;;;;;;;3.10;0.40;;;9.40;78.80;;;;;;4987008;28;88118;-72
2023/02/20 04:01:43;;;;;;;2.25;0.38;;;9.30;79.30;;;;;;4986992;28;87379;-70
2023/02/20 04:04:13;;;;;;;5.97;0.52;;;9.30;79.00;;;;;;4979738;28;87664;-72
2023/02/20 04:06:40;;;;;;;;;;;9.30;79.40;;;;;;4984389;28;87257;-73
2023/02/20 04:09:10;;;;;;;3.88;0.50;;;9.30;78.80;;;;;;4982073;28;87468;-73
2023/02/20 04:11:44;;;;;;;2.40;0.40;;;9.20;78.70;;;;;;4986165;28;87380;-73
2023/02/20 04:14:11;;;;;;;4.38;0.47;;;9.10;78.90;;;;;;4985177;28;88104;-73
2023/02/20 04:16:49;;;;;;;5.72;0.43;;;9.10;78.70;;;;;;4976883;28;88919;-71
2023/02/20 04:19:15;;;;;;;2.97;0.40;;;9.10;78.60;;;;;;4977082;28;87738;-71
2023/02/20 04:21:57;;;;;;;4.07;0.38;;;9.00;79.00;;;;;;4979358;28;87183;-71
2023/02/20 04:24:29;;;;;;;5.68;0.70;;;9.00;78.60;;;;;;4979263;28;89548;-72
2023/02/20 04:26:55;;;;;;;3.13;0.45;;;8.90;78.60;;;;;;4979265;28;87571;-72
2023/02/20 04:29:21;;;;;;;4.47;0.60;;;8.80;78.30;;;;;;4971186;28;89551;-72
2023/02/20 04:31:47;;;;;;;4.57;0.57;;;8.80;77.80;;;;;;4972542;28;87526;-71
2023/02/20 04:34:13;;;;;;;3.63;0.30;;;8.60;78.10;;;;;;4970082;28;88129;-72
2023/02/20 04:36:38;;;;;;;2.30;0.30;;;8.50;77.50;;;;;;4976199;28;87590;-71
2023/02/20 04:39:04;;;;;;;3.88;0.30;;;8.50;76.90;;;;;;4973044;28;88159;-71
2023/02/20 04:41:30;;;;;;;3.58;0.28;;;8.50;76.60;;;;;;4979279;28;87614;-71
2023/02/20 04:44:29;;;;;;;4.35;0.30;;;8.50;76.30;;;;;;4990379;28;87846;-72
2023/02/20 04:46:41;;;;;;;3.75;0.68;;;8.50;75.80;;;;;;4978138;28;89051;-72
2023/02/20 04:49:07;;;;;;;3.25;0.32;;;8.50;75.70;;;;;;4978377;28;87373;-72
2023/02/20 04:51:32;;;;;;;2.33;0.30;;;8.40;76.10;;;;;;4979693;28;87632;-71
2023/02/20 04:53:58;;;;;;;4.60;0.30;;;8.40;76.50;;;;;;4974452;28;87654;-72
2023/02/20 04:56:23;;;;;;;2.88;0.40;;;8.40;76.90;;;;;;4971510;28;87162;-72
2023/02/20 04:58:50;;;;;;;2.83;0.30;;;8.30;77.10;;;;;;4981757;28;87531;-72
2023/02/20 05:01:16;;;;;;;4.57;0.30;;;8.20;77.20;;;;;;4978662;28;87360;-72
2023/02/20 05:03:42;;;;;;;1.90;0.30;;;8.20;77.30;;;;;;4977807;28;89109;-72
2023/02/20 05:06:07;;;;;;;4.65;0.68;;;8.20;77.40;;;;;;4977931;28;88888;-72
2023/02/20 05:08:33;;;;;;;4.05;0.30;;;8.10;77.40;;;;;;4978447;28;88687;-73
2023/02/20 05:10:59;;;;;;;4.88;0.40;;;8.10;77.70;;;;;;4979140;28;87688;-72
2023/02/20 05:13:24;;;;;;;2.33;0.43;;;8.20;78.20;;;;;;4977252;28;88021;-71
2023/02/20 05:15:50;;;;;;;2.25;0.30;;;8.20;78.20;;;;;;4981990;28;87835;-71
2023/02/20 05:18:26;;;;;;;3.67;0.30;;;8.20;78.50;;;;;;4977586;28;87039;-71
2023/02/20 05:23:36;;;;;;;2.03;0.30;;;8.30;78.90;;;;;;4987665;28;87655;-73
2023/02/20 05:26:02;;;;;;;2.42;0.50;;;8.30;78.80;;;;;;4989867;28;88153;-73
2023/02/20 05:28:27;;;;;;;2.20;0.22;;;8.30;79.00;;;;;;4982928;28;88506;-73
2023/02/20 05:30:53;;;;;;;1.40;0.35;;;8.30;78.90;;;;;;4979211;28;87765;-73
2023/02/20 05:33:19;;;;;;;2.75;0.28;;;8.30;80.50;;;;;;4984377;28;87579;-74
2023/02/20 05:35:44;;;;;;;1.85;0.32;;;8.40;81.10;;;;;;4982990;28;88016;-72
2023/02/20 05:38:17;;;;;;;4.05;0.30;;;8.40;79.20;;;;;;4980239;28;88414;-73
2023/02/20 05:40:42;;;;;;;1.08;0.20;;;8.30;79.30;;;;;;4983018;28;87127;-73
2023/02/20 05:43:08;;;;;;;3.28;0.32;;;8.30;80.00;;;;;;4980004;28;87677;-73
2023/02/20 05:45:34;;;;;;;1.75;0.20;;;8.30;79.40;;;;;;4976376;28;87188;-73
2023/02/20 05:47:59;;;;;;;2.25;0.50;;;8.40;79.50;;;;;;4974316;28;87284;-71
2023/02/20 05:50:25;;;;;;;2.40;0.30;;;8.40;79.10;;;;;;4979580;28;87502;-71
2023/02/20 05:52:50;;;;;;;2.83;0.40;;;8.40;79.10;;;;;;4975304;28;88363;-74
2023/02/20 05:55:16;;;;;;;2.83;0.40;;;8.30;79.10;;;;;;4968082;28;88289;-73
2023/02/20 05:57:42;;;;;;;3.10;0.57;;;8.40;79.30;;;;;;4980682;28;88544;-71
2023/02/20 06:00:09;;;;;;;1.98;0.30;;;8.40;79.40;;;;;;4973695;28;87666;-73
2023/02/20 06:02:35;;;;;;;2.40;0.38;;;8.30;79.00;;;;;;4974908;28;87703;-72
2023/02/20 06:05:00;;;;;;;3.83;0.40;;;8.30;79.40;;;;;;4975571;28;88341;-73
2023/02/20 06:07:26;;;;;;;4.90;0.43;;;8.30;79.60;;;;;;4975068;28;87090;-72
2023/02/20 06:09:52;;;;;;;2.17;0.40;;;8.30;79.90;;;;;;4993925;28;87510;-74
2023/02/20 06:12:17;;;;;;;1.88;0.30;;;8.40;79.70;;;;;;4976746;28;87970;-75
2023/02/20 06:14:43;;;;;;;2.40;0.73;;;8.40;79.90;;;;;;4976397;28;87321;-75
2023/02/20 06:17:09;;;;;;;4.72;0.35;;;8.40;79.60;;;;;;4966260;28;90168;-74
2023/02/20 06:19:35;;;;;;;3.67;0.40;;;8.40;79.90;;;;;;4967654;28;90493;-72
2023/02/20 06:22:01;;;;;;;3.08;0.50;;;8.30;80.10;;;;;;4972200;28;89927;-73
2023/02/20 06:24:28;;;;;;;1.60;0.32;;;8.30;80.30;;;;;;4976397;28;87899;-74
2023/02/20 06:26:54;;;;;;;4.25;0.80;;;8.40;80.40;;;;;;4979720;28;87510;-72
2023/02/20 06:29:20;;;;;;;2.00;0.50;;;8.40;80.20;;;;;;4986395;28;87209;-73
2023/02/20 06:31:46;;;;;;;4.82;0.60;;;8.40;80.20;;;;;;4977506;28;89107;-73
2023/02/20 06:34:13;;;;;;;1.40;0.35;;;8.40;80.10;;;;;;4981545;28;87466;-74
2023/02/20 06:36:40;;;;;;;2.78;0.52;;;8.50;80.00;;;;;;4991686;28;87595;-73
2023/02/20 06:39:07;;;;;;;4.63;1.17;;;8.60;79.50;;;;;;4981139;28;87652;-73
2023/02/20 06:41:33;;;;;;;3.28;0.85;;;8.50;77.80;;;;;;4986258;28;89769;-75
2023/02/20 06:43:59;;;;;;;6.78;1.13;;;8.40;77.90;;;;;;4973906;28;89216;-75
2023/02/20 06:46:25;;;;;;;5.72;0.90;;;8.10;78.50;;;;;;4969196;28;87620;-72
2023/02/20 06:48:53;;;;;;;5.50;0.85;;;8.10;79.00;;;;;;4979677;28;87652;-73
2023/02/20 06:51:24;;;;;;;7.05;1.13;;;8.10;79.40;;;;;;4989903;28;88626;-74
2023/02/20 06:53:50;;;;;;;6.78;1.63;;;8.20;79.30;;;;;;4984698;28;87807;-74
2023/02/20 06:56:19;;;;;;;4.70;1.00;;;8.60;78.70;;;;;;4995624;28;87522;-74
2023/02/20 06:58:49;;;;;;;5.82;1.10;;;9.40;76.80;;;;;;4971631;28;88056;-74
2023/02/20 07:01:16;;;;;;;3.53;1.20;;;10.30;74.00;;;;;;4976444;28;88534;-74
2023/02/20 07:03:44;;;;;;;5.50;1.08;;;11.10;70.80;;;;;;4981230;28;87378;-74
2023/02/20 07:06:10;;;;;;;5.25;0.82;;;11.60;68.60;;;;;;4985180;28;88553;-75
2023/02/20 07:08:36;;;;;;;2.97;1.10;;;12.10;66.80;;;;;;4984998;28;87963;-74
2023/02/20 07:11:02;;;;;;;8.38;1.60;;;12.50;66.50;;;;;;4981774;28;88116;-73
2023/02/20 07:13:28;;;;;;;6.55;1.67;;;13.30;63.70;;;;;;4981108;28;87357;-74
2023/02/20 07:15:53;;;;;;;5.10;1.48;;;13.60;62.40;;;;;;4973615;28;87287;-74
2023/02/20 07:18:22;;;;;;;4.97;1.63;;;13.90;61.90;;;;;;4983108;28;87904;-74
2023/02/20 07:20:49;;;;;;;4.38;1.30;;;14.50;61.10;;;;;;4986461;28;88034;-74
2023/02/20 07:23:15;;;;;;;4.55;1.45;;;15.10;59.30;;;;;;4976606;28;87246;-74
2023/02/20 07:25:41;;;;;;;9.23;1.58;;;15.90;59.20;;;;;;4976724;28;87434;-74
2023/02/20 07:28:07;;;;;;;6.68;1.13;;;16.60;56.30;;;;;;4993857;28;87588;-74
2023/02/20 07:30:33;;;;;;;7.65;1.48;;;17.30;55.00;;;;;;4986389;28;89137;-74
2023/02/20 07:32:59;;;;;;;3.72;1.02;;;17.80;53.20;;;;;;4979294;28;88263;-74
2023/02/20 07:35:24;;;;;;;3.88;1.30;;;18.40;52.20;;;;;;4997232;28;87507;-74
2023/02/20 07:37:50;;;;;;;5.93;1.02;;;18.80;51.30;;;;;;5000131;28;87578;-74
2023/02/20 07:40:16;;;;;;;2.80;1.13;;;19.10;50.50;;;;;;4999860;28;88150;-74
2023/02/20 07:42:42;;;;;;;4.40;0.90;;;19.50;49.60;;;;;;5000172;28;87401;-74
2023/02/20 07:45:09;;;;;;;3.10;1.00;;;19.80;48.90;;;;;;4991658;28;87488;-74
2023/02/20 07:47:35;;;;;;;3.55;0.82;;;20.10;47.50;;;;;;4981582;28;87084;-74
2023/02/20 07:50:00;;;;;;;5.00;0.88;;;20.30;46.90;;;;;;4982237;28;87829;-74
2023/02/20 07:52:26;;;;;;;3.67;0.70;;;20.90;46.20;;;;;;4978133;28;87813;-74
2023/02/20 07:54:52;;;;;;;3.63;1.20;;;21.10;44.60;;;;;;4978624;28;88472;-74
2023/02/20 07:57:17;;;;;;;3.47;0.75;;;20.80;45.00;;;;;;4979118;28;87634;-74
2023/02/20 07:59:43;;;;;;;2.38;0.77;;;21.00;44.10;;;;;;4979048;28;88887;-74
2023/02/20 08:02:09;;;;;;;3.70;1.33;;;21.20;44.30;;;;;;4978227;28;88287;-74
2023/02/20 08:04:34;;;;;;;10.05;1.65;;;22.10;43.30;;;;;;4994291;28;87501;-74
2023/02/20 08:07:00;;;;;;;7.32;1.60;;;22.50;43.50;;;;;;4980612;28;87172;-74
2023/02/20 08:09:26;;;;;;;5.65;1.52;;;22.70;41.90;;;;;;4979224;28;87698;-74
2023/02/20 08:11:51;;;;;;;7.43;1.10;;;23.00;42.00;;;;;;4980263;28;87267;-74
2023/02/20 08:14:17;;;;;;;5.85;1.38;;;23.60;40.90;;;;;;4986851;28;87471;-74
2023/02/20 08:16:43;;;;;;;9.00;1.30;;;24.10;40.60;;;;;;4995153;28;87378;-74
2023/02/20 08:19:08;;;;;;;5.25;1.52;;;24.60;39.40;;;;;;4993013;28;88622;-74
2023/02/20 08:21:34;;;;;;;7.75;1.33;;;24.50;39.30;;;;;;4996813;28;89082;-74
2023/02/20 08:24:00;;;;;;;4.70;1.63;;;24.70;38.70;;;;;;4984388;28;87516;-74
2023/02/20 08:26:25;;;;;;;3.38;1.10;;;24.80;37.60;;;;;;4997376;28;88087;-74
2023/02/20 08:28:52;;;;;;;4.63;1.33;;;24.90;37.60;;;;;;4999606;28;87878;-74
2023/02/20 08:31:18;;;;;;;3.40;1.23;;;25.40;37.20;;;;;;4999736;28;87685;-74
2023/02/20 08:33:43;;;;;;;5.80;1.20;;;25.80;37.30;;;;;;4995491;28;86966;-74
2023/02/20 08:36:09;;;;;;;2.47;1.10;;;25.60;36.80;;;;;;4979978;28;86694;-74
2023/02/20 08:38:36;;;;;;;4.90;1.75;;;26.00;37.20;;;;;;4979574;28;88408;-74
2023/02/20 08:41:08;;;;;;;2.90;1.30;;;26.60;36.50;;;;;;4985207;28;87825;-74
2023/02/20 08:43:36;;;;;;;2.85;1.30;;;26.80;36.30;;;;;;4999065;28;88186;-74
2023/02/20 08:46:02;;;;;;;6.95;1.40;;;27.10;35.20;;;;;;4982564;28;87300;-74
2023/02/20 08:48:28;;;;;;;2.58;1.25;;;27.00;35.70;;;;;;4997193;28;90178;-74
2023/02/20 08:50:54;;;;;;;2.88;1.30;;;27.40;34.90;;;;;;4997078;28;89274;-74
2023/02/20 08:53:20;;;;;;;4.00;1.35;;;27.30;34.30;;;;;;4999770;28;87347;-74
2023/02/20 08:55:45;;;;;;;7.45;1.85;;;27.60;35.00;;;;;;4997812;28;87598;-74
2023/02/20 08:58:11;;;;;;;10.10;1.60;;;28.40;35.00;;;;;;4980022;28;87219;-74
2023/02/20 09:00:37;;;;;;;5.50;1.52;;;28.60;35.20;;;;;;4995855;28;88429;-74
2023/02/20 09:03:06;;;;;;;4.55;2.05;;;29.60;35.30;;;;;;4998869;28;88432;-74
2023/02/20 09:05:33;;;;;;;5.13;1.80;;;29.90;33.60;;;;;;4983895;28;87457;-74
2023/02/20 09:07:58;;;;;;;4.78;2.10;;;30.20;34.40;;;;;;4992546;28;88523;-75
2023/02/20 09:10:24;;;;;;;4.28;1.90;;;30.60;34.30;;;;;;4998752;28;88695;-74
2023/02/20 09:12:50;;;;;;;4.45;1.85;;;30.90;33.50;;;;;;4993718;28;87491;-74
2023/02/20 09:15:17;;;;;;;3.70;1.77;;;31.30;33.10;;;;;;4978348;28;87119;-74
2023/02/20 09:17:44;;;;;;;6.88;1.90;;;31.50;32.80;;;;;;4980618;28;87964;-74
2023/02/20 09:20:11;;;;;;;5.63;1.90;;;31.40;32.30;;;;;;4988252;28;87834;-74
2023/02/20 09:22:36;;;;;;;5.43;1.90;;;31.90;32.70;;;;;;4998596;28;87563;-74
2023/02/20 09:25:03;;;;;;;6.45;2.13;;;32.20;31.90;;;;;;4997796;28;87562;-74
2023/02/20 09:27:29;;;;;;;4.65;2.08;;;32.00;30.80;;;;;;4998249;28;87488;-74
2023/02/20 09:29:55;;;;;;;4.53;2.33;;;31.40;32.30;;;;;;4980782;28;87623;-74
2023/02/20 09:32:21;;;;;;;4.18;1.88;;;30.90;31.80;;;;;;4978639;28;88793;-74
2023/02/20 09:34:47;;;;;;;3.08;1.55;;;31.10;32.30;;;;;;4979147;28;87339;-74
2023/02/20 09:37:13;;;;;;;6.90;1.83;;;31.40;31.50;;;;;;4978258;28;88048;-74
2023/02/20 09:39:39;;;;;;;5.15;2.22;;;31.20;31.50;;;;;;4982463;28;87768;-74
2023/02/20 09:42:41;;;;;;;5.43;1.95;;;31.20;31.40;;;;;;4998328;28;87403;-74
2023/02/20 09:45:18;;;;;;;3.50;2.22;;;31.50;31.50;;;;;;4991360;28;87950;-74
2023/02/20 09:48:05;;;;;;;5.28;3.15;;;32.30;30.90;;;;;;4991336;28;88056;-74
2023/02/20 09:51:01;;;;;;;2.70;1.65;;;32.70;30.40;;;;;;4976679;28;90638;-74
2023/02/20 09:53:35;;;;;;;6.43;1.98;;;32.40;30.10;;;;;;4978415;28;87124;-74
2023/02/20 09:56:04;;;;;;;6.63;2.70;;;32.60;30.10;;;;;;4978335;28;87548;-74
2023/02/20 09:58:43;;;;;;;3.17;1.98;;;33.10;30.00;;;;;;4980538;28;88527;-74
2023/02/20 10:01:14;;;;;;;5.68;2.03;;;33.20;29.70;;;;;;4978779;28;88320;-74
2023/02/20 10:03:51;;;;;;;4.13;1.63;;;33.80;29.40;;;;;;4978297;28;87469;-74
2023/02/20 10:06:20;;;;;;;2.88;1.75;;;34.20;29.30;;;;;;4980320;28;87475;-74
2023/02/20 10:08:50;;;;;;;3.58;1.92;;;34.60;29.20;;;;;;4977730;28;88535;-73
2023/02/20 10:12:02;;;;;;;4.70;2.25;;;34.90;29.50;;;;;;4977963;28;87427;-73
2023/02/20 10:14:55;;;;;;;3.72;1.50;;;34.70;29.20;;;;;;4966758;28;87559;-73
2023/02/20 10:17:46;;;;;;;4.82;2.08;;;34.10;29.10;;;;;;4998347;28;86682;-73
2023/02/20 10:20:33;;;;;;;4.22;1.85;;;34.40;28.70;;;;;;4994112;28;88126;-73
2023/02/20 10:23:10;;;;;;;3.85;1.88;;;34.20;28.60;;;;;;4975257;28;88578;-73
2023/02/20 10:25:44;;;;;;;4.65;2.40;;;34.30;28.90;;;;;;4977385;28;88656;-73
2023/02/20 10:28:14;;;;;;;4.93;2.38;;;34.20;29.00;;;;;;4977609;28;87915;-73
2023/02/20 10:30:56;;;;;;;6.03;2.17;;;33.60;29.10;;;;;;4977605;28;87450;-73
2023/02/20 10:33:45;;;;;;;5.32;2.42;;;33.50;29.20;;;;;;4977447;28;88436;-73
2023/02/20 10:36:21;;;;;;;4.07;1.88;;;33.10;29.30;;;;;;4977724;28;87329;-73
2023/02/20 10:39:09;;;;;;;4.25;2.28;;;32.70;29.00;;;;;;4977961;28;87409;-73
2023/02/20 10:42:16;;;;;;;3.25;1.73;;;32.60;29.30;;;;;;4995629;28;87587;-73
2023/02/20 10:44:56;;;;;;;3.67;1.80;;;32.10;29.80;;;;;;4941427;28;88402;-73
2023/02/20 10:47:41;;;;;;;3.72;1.48;;;30.40;30.10;;;;;;5003968;28;87565;-74
2023/02/20 10:50:16;;;;;;;3.50;1.27;;;28.50;31.40;;;;;;4992576;28;87476;-75
2023/02/20 10:53:17;;;;;;;3.65;1.38;;;26.30;34.40;;;;;;4975437;28;89138;-74
2023/02/20 10:55:59;;;;;;;4.72;1.10;;;23.90;36.60;;;;;;4959027;28;88783;-74
2023/02/20 10:58:52;;;;;;;4.90;1.00;;;22.40;39.70;;;;;;4974864;28;87182;-74
2023/02/20 11:01:24;;;;;;;3.85;0.98;;;21.00;42.00;;;;;;4977964;28;87285;-74
2023/02/20 11:03:59;;;;;;;3.75;0.90;;;20.20;42.50;;;;;;4977253;28;88284;-74
2023/02/20 11:06:35;;;;;;;3.97;0.88;;;19.40;44.30;;;;;;4969364;28;87857;-74
2023/02/20 11:09:01;;;;;;;4.80;0.80;;;18.80;45.90;;;;;;4967306;28;87140;-74
2023/02/20 11:11:43;;;;;;;3.88;0.85;;;18.20;48.20;;;;;;4964811;28;86946;-74
2023/02/20 11:14:38;;;;;;;1.65;0.55;;;17.60;46.60;;;;;;4974836;28;89566;-74
2023/02/20 11:17:11;;;;;;;4.13;0.65;;;17.20;48.40;;;;;;4961729;28;88095;-74
2023/02/20 11:19:55;;;;;;;2.85;0.60;;;16.90;49.30;;;;;;4971724;28;88312;-74
2023/02/20 11:22:48;;;;;;;3.88;0.77;;;16.60;49.90;;;;;;4967357;28;88130;-74
2023/02/20 11:25:20;;;;;;;3.58;0.85;;;16.30;51.00;;;;;;4970914;28;88247;-74
2023/02/20 11:27:50;;;;;;;4.93;0.77;;;16.20;51.50;;;;;;4973223;28;87538;-73
2023/02/20 11:30:30;;;;;;;6.13;0.70;;;16.20;52.40;;;;;;4975566;28;87392;-73
2023/02/20 11:33:12;;;;;;;3.13;0.60;;;16.00;51.50;;;;;;4970804;28;87743;-74
2023/02/20 11:35:39;;;;;;;;;;;15.90;53.50;;;;;;4970301;28;88136;-74
2023/02/20 11:38:16;;;;;;;4.30;0.73;;;15.80;52.30;;;;;;4972007;28;87384;-73
2023/02/20 11:40:44;;;;;;;3.60;0.68;;;15.60;53.90;;;;;;4972541;28;87500;-74
2023/02/20 11:43:12;;;;;;;4.45;0.93;;;15.50;52.90;;;;;;4969988;28;88735;-74
2023/02/20 11:45:38;;;;;;;6.28;0.80;;;15.30;54.00;;;;;;4970807;28;88803;-73
2023/02/20 11:48:19;;;;;;;4.50;0.70;;;15.20;56.00;;;;;;4971670;28;88841;-73
2023/02/20 11:50:50;;;;;;;5.38;0.80;;;15.20;53.40;;;;;;4972070;28;87912;-73
2023/02/20 11:53:27;;;;;;;4.10;0.90;;;15.10;54.90;;;;;;4976549;28;88066;-73
2023/02/20 11:56:12;;;;;;;5.05;1.02;;;15.00;54.90;;;;;;4971280;28;88129;-74
2023/02/20 11:58:39;;;;;;;4.38;0.65;;;14.80;56.50;;;;;;4970910;28;89221;-73
2023/02/20 12:01:06;;;;;;;5.18;1.00;;;14.80;56.10;;;;;;4967658;28;87959;-74
2023/02/20 12:03:33;;;;;;;5.78;0.98;;;14.70;55.90;;;;;;4973238;28;86900;-74
2023/02/20 12:06:37;;;;;;;2.90;0.50;;;14.70;55.60;;;;;;4968935;28;87642;-73
2023/02/20 12:09:10;;;;;;;5.90;1.08;;;14.70;56.10;;;;;;4968980;28;88416;-73
2023/02/20 12:11:35;;;;;;;6.32;0.75;;;14.70;56.20;;;;;;4967390;28;88192;-74
2023/02/20 12:14:01;;;;;;;3.83;0.73;;;14.60;56.00;;;;;;4968683;28;87499;-74
2023/02/20 12:16:37;;;;;;;3.47;0.85;;;14.50;56.00;;;;;;4970242;28;88444;-74
2023/02/20 12:19:30;;;;;;;4.07;0.93;;;14.30;56.40;;;;;;4975000;28;89129;-73
2023/02/20 12:22:14;;;;;;;5.45;0.88;;;14.20;57.50;;;;;;4980608;28;87941;-73
2023/02/20 12:25:17;;;;;;;3.17;0.73;;;14.20;57.90;;;;;;4978262;28;87395;-74
2023/02/20 12:28:04;;;;;;;5.00;0.90;;;14.20;56.20;;;;;;4979820;28;88323;-74
2023/02/20 12:30:48;;;;;;;3.70;0.80;;;14.40;57.20;;;;;;4972398;28;88122;-73
2023/02/20 12:33:49;;;;;;;2.92;0.68;;;14.40;57.00;;;;;;4983630;28;87194;-74
2023/02/20 12:36:32;;;;;;;4.25;0.77;;;14.40;56.30;;;;;;4998123;28;87443;-73
2023/02/20 12:39:01;;;;;;;2.80;0.70;;;14.50;57.20;;;;;;4992620;28;89189;-72
2023/02/20 12:41:31;;;;;;;5.70;0.85;;;14.60;55.70;;;;;;4974717;28;89288;-74
2023/02/20 12:44:02;;;;;;;6.70;1.20;;;14.60;55.50;;;;;;4982722;28;87301;-74
2023/02/20 12:47:02;;;;;;;5.68;1.08;;;14.60;57.90;;;;;;4987543;28;87379;-74
2023/02/20 12:49:45;;;;;;;2.97;0.93;;;14.70;57.00;;;;;;4977324;28;87606;-74
2023/02/20 12:52:30;;;;;;;4.80;1.02;;;14.70;57.00;;;;;;4971647;28;87891;-74
2023/02/20 12:58:28;;;;;;;4.78;1.10;;;15.00;57.50;;;;;;4965651;28;87013;-72
2023/02/20 13:01:00;;;;;;;4.38;0.98;;;15.10;56.90;;;;;;4968545;28;88332;-72
2023/02/20 13:03:55;;;;;;;5.93;0.93;;;15.10;56.40;;;;;;4981287;28;88537;-74
2023/02/20 13:06:50;;;;;;;3.92;1.10;;;15.00;54.70;;;;;;4974940;28;88342;-74
2023/02/20 13:09:21;;;;;;;4.63;1.00;;;15.00;56.10;;;;;;4975656;28;87491;-75
2023/02/20 13:11:51;;;;;;;3.85;0.93;;;15.10;57.50;;;;;;4979615;28;87333;-74
2023/02/20 13:14:33;;;;;;;6.15;0.90;;;15.20;57.10;;;;;;4992265;28;87477;-74
2023/02/20 13:17:22;;;;;;;5.45;1.30;;;15.10;56.80;;;;;;4982274;28;87470;-75
2023/02/20 13:20:10;;;;;;;5.75;1.08;;;15.10;56.30;;;;;;4987332;28;87528;-75
2023/02/20 13:22:36;;;;;;;5.50;1.30;;;15.00;56.90;;;;;;4972650;28;88186;-73
2023/02/20 13:25:41;;;;;;;3.50;0.93;;;15.00;55.80;;;;;;4974071;28;88063;-74
2023/02/20 13:28:29;;;;;;;4.20;1.13;;;15.00;57.40;;;;;;4965679;28;87304;-74
2023/02/20 13:31:19;;;;;;;4.75;1.27;;;15.00;56.70;;;;;;4968928;28;88050;-74
2023/02/20 13:34:05;;;;;;;3.63;1.33;;;15.00;56.50;;;;;;4975432;28;88566;-73
2023/02/20 13:36:41;;;;;;;4.95;1.45;;;15.00;56.60;;;;;;4948133;28;90730;-73